createdAt,value
2023-05-13T00:00:28.619Z,81.27
2023-05-13T00:02:56.702Z,81.80
2023-05-13T00:05:24.664Z,82.14
2023-05-13T00:07:52.592Z,81.48
2023-05-13T00:10:22.090Z,82.01
2023-05-13T00:12:50.114Z,81.96
2023-05-13T00:15:18.050Z,81.88
2023-05-13T00:17:46.274Z,82.38
2023-05-13T00:20:14.235Z,83.22
2023-05-13T00:22:42.188Z,83.71
2023-05-13T00:25:10.989Z,84.19
2023-05-13T00:27:40.562Z,84.63
2023-05-13T00:30:10.196Z,84.99
2023-05-13T00:32:38.157Z,85.41
2023-05-13T00:35:06.885Z,85.06
2023-05-13T00:37:34.809Z,86.33
2023-05-13T00:40:03.002Z,86.53
2023-05-13T00:42:30.912Z,87.55
2023-05-13T00:45:00.193Z,87.05
2023-05-13T00:47:28.214Z,86.74
2023-05-13T00:49:56.195Z,87.66
2023-05-13T00:52:24.448Z,87.40
2023-05-13T00:54:52.360Z,87.53
2023-05-13T00:57:20.320Z,87.88
2023-05-13T00:59:48.282Z,88.35
2023-05-13T01:02:25.306Z,88.66
2023-05-13T01:05:04.274Z,87.76
2023-05-13T01:07:38.698Z,88.44
2023-05-13T01:10:12.614Z,88.13
2023-05-13T01:12:44.627Z,88.72
2023-05-13T01:15:16.482Z,87.99
2023-05-13T01:17:51.339Z,87.83
2023-05-13T01:20:23.670Z,87.83
2023-05-13T01:22:53.365Z,88.07
2023-05-13T01:25:21.366Z,87.21
2023-05-13T01:27:49.529Z,87.51
2023-05-13T01:30:17.996Z,87.85
2023-05-13T01:32:46.636Z,87.70
2023-05-13T01:35:16.167Z,87.36
2023-05-13T01:37:44.856Z,88.16
2023-05-13T01:40:30.993Z,89.11
2023-05-13T01:43:00.724Z,88.67
2023-05-13T01:45:29.952Z,89.58
2023-05-13T01:47:57.961Z,90.28
2023-05-13T01:50:26.301Z,89.43
2023-05-13T01:52:54.226Z,89.68
2023-05-13T01:55:23.539Z,90.20
2023-05-13T01:57:51.441Z,90.06
2023-05-13T02:00:20.129Z,90.17
2023-05-13T02:02:48.341Z,90.47
2023-05-13T02:05:16.855Z,91.92
2023-05-13T02:07:44.914Z,92.64
2023-05-13T02:10:13.166Z,93.11
2023-05-13T02:12:42.469Z,93.56
2023-05-13T02:15:11.428Z,94.45
2023-05-13T02:17:39.394Z,94.66
2023-05-13T02:20:09.197Z,94.54
2023-05-13T02:22:37.286Z,95.21
2023-05-13T02:25:05.749Z,94.53
2023-05-13T02:27:33.710Z,95.16
2023-05-13T02:30:03.032Z,94.39
2023-05-13T02:32:30.989Z,94.31
2023-05-13T02:34:58.942Z,90.98
2023-05-13T02:37:26.859Z,89.89
2023-05-13T02:39:54.804Z,90.86
2023-05-13T02:42:22.701Z,89.59
2023-05-13T02:44:50.806Z,89.10
2023-05-13T02:47:20.152Z,89.11
2023-05-13T02:49:48.093Z,87.64
2023-05-13T02:52:16.000Z,89.52
2023-05-13T02:54:43.951Z,89.57
2023-05-13T02:57:11.890Z,87.74
2023-05-13T02:59:39.789Z,86.54
2023-05-13T03:02:07.707Z,88.27
2023-05-13T03:04:37.003Z,87.01
2023-05-13T03:07:05.055Z,86.88
2023-05-13T03:09:35.070Z,83.60
2023-05-13T03:12:03.042Z,84.68
2023-05-13T03:14:30.955Z,84.59
2023-05-13T03:16:59.976Z,85.17
2023-05-13T03:19:28.564Z,85.78
2023-05-13T03:21:57.960Z,86.89
2023-05-13T03:24:25.888Z,84.42
2023-05-13T03:26:53.780Z,85.39
2023-05-13T03:29:21.672Z,85.67
2023-05-13T03:31:49.755Z,86.48
2023-05-13T03:34:17.795Z,86.49
2023-05-13T03:36:45.965Z,84.79
2023-05-13T03:39:16.349Z,85.12
2023-05-13T03:41:45.789Z,83.70
2023-05-13T03:44:13.714Z,83.98
2023-05-13T03:46:41.649Z,83.68
2023-05-13T03:49:09.561Z,84.14
2023-05-13T03:51:37.517Z,84.03
2023-05-13T03:54:05.729Z,82.03
2023-05-13T03:56:35.056Z,81.31
2023-05-13T03:59:02.985Z,77.21
2023-05-13T04:01:31.186Z,76.70
2023-05-13T04:03:59.111Z,76.37
2023-05-13T04:06:26.985Z,74.95
2023-05-13T04:08:55.331Z,74.40
2023-05-13T04:11:23.201Z,73.00
2023-05-13T04:13:52.586Z,72.40
2023-05-13T04:16:21.373Z,72.45
2023-05-13T04:18:49.375Z,71.54
2023-05-13T04:21:17.333Z,71.08
2023-05-13T04:23:45.230Z,68.36
2023-05-13T04:26:13.183Z,65.92
2023-05-13T04:28:41.095Z,65.41
2023-05-13T04:31:11.661Z,65.94
2023-05-13T04:33:39.672Z,64.76
2023-05-13T04:36:08.157Z,62.66
2023-05-13T04:38:36.072Z,62.46
2023-05-13T04:41:03.987Z,60.92
2023-05-13T04:43:32.192Z,62.49
2023-05-13T04:46:00.166Z,59.65
2023-05-13T04:48:29.458Z,58.26
2023-05-13T04:50:58.433Z,58.89
2023-05-13T04:53:26.856Z,57.49
2023-05-13T04:56:00.643Z,59.94
2023-05-13T04:58:28.841Z,57.84
2023-05-13T05:00:57.452Z,59.02
2023-05-13T05:03:25.589Z,56.90
2023-05-13T05:05:54.936Z,56.79
2023-05-13T05:08:22.856Z,56.28
2023-05-13T05:10:50.834Z,54.45
2023-05-13T05:13:18.750Z,54.58
2023-05-13T05:15:46.668Z,54.29
2023-05-13T05:18:14.633Z,54.61
2023-05-13T05:20:42.608Z,55.74
2023-05-13T05:23:11.920Z,53.37
2023-05-13T05:25:39.837Z,54.63
2023-05-13T05:28:07.864Z,55.31
2023-05-13T05:30:39.932Z,54.60
2023-05-13T05:33:08.622Z,53.13
2023-05-13T05:35:38.359Z,51.50
2023-05-13T05:38:07.711Z,51.12
2023-05-13T05:40:37.465Z,51.65
2023-05-13T05:43:05.362Z,49.61
2023-05-13T05:45:33.309Z,50.48
2023-05-13T05:48:01.332Z,47.30
2023-05-13T05:50:29.769Z,48.59
2023-05-13T05:52:57.796Z,48.43
2023-05-13T05:55:25.798Z,46.99
2023-05-13T05:57:55.879Z,51.77
2023-05-13T06:00:24.125Z,49.29
2023-05-13T06:02:52.257Z,46.14
2023-05-13T06:05:20.380Z,46.09
2023-05-13T06:07:48.267Z,46.03
2023-05-13T06:10:16.376Z,43.19
2023-05-13T06:12:44.279Z,43.13
2023-05-13T06:15:13.935Z,42.85
2023-05-13T06:17:42.040Z,44.25
2023-05-13T06:20:10.781Z,43.32
2023-05-13T06:22:38.743Z,43.06
2023-05-13T06:25:07.229Z,43.29
2023-05-13T06:27:35.153Z,41.08
2023-05-13T06:30:03.195Z,39.25
2023-05-13T06:32:32.477Z,40.96
2023-05-13T06:35:00.650Z,38.90
2023-05-13T06:37:28.558Z,38.32
2023-05-13T06:39:56.465Z,38.47
2023-05-13T06:42:24.366Z,37.35
2023-05-13T06:44:52.301Z,37.71
2023-05-13T06:47:21.692Z,36.96
2023-05-13T06:49:51.795Z,37.61
2023-05-13T06:52:19.707Z,37.76
2023-05-13T06:54:48.328Z,36.89
2023-05-13T06:57:16.222Z,35.97
2023-05-13T06:59:45.747Z,37.40
2023-05-13T07:02:14.097Z,36.64
2023-05-13T07:04:42.021Z,34.83
2023-05-13T07:07:11.290Z,37.37
2023-05-13T07:09:39.189Z,37.03
2023-05-13T07:12:07.552Z,37.13
2023-05-13T07:14:35.442Z,35.81
2023-05-13T07:17:03.733Z,35.47
2023-05-13T07:19:31.814Z,34.46
2023-05-13T07:21:59.731Z,33.38
2023-05-13T07:24:29.038Z,33.77
2023-05-13T07:26:56.936Z,32.73
2023-05-13T07:29:25.973Z,33.08
2023-05-13T07:31:55.635Z,33.12
2023-05-13T07:34:23.526Z,32.89
2023-05-13T07:36:51.465Z,33.82
2023-05-13T07:39:19.518Z,34.32
2023-05-13T07:41:48.794Z,32.61
2023-05-13T07:44:16.805Z,34.15
2023-05-13T07:46:44.795Z,33.17
2023-05-13T07:49:12.753Z,33.18
2023-05-13T07:51:41.351Z,33.45
2023-05-13T07:54:10.514Z,33.75
2023-05-13T07:56:39.153Z,36.35
2023-05-13T07:59:08.415Z,34.19
2023-05-13T08:01:37.020Z,35.70
2023-05-13T08:04:05.540Z,34.55
2023-05-13T08:06:33.643Z,32.58
2023-05-13T08:09:01.781Z,35.19
2023-05-13T08:11:29.930Z,34.73
2023-05-13T08:13:57.825Z,33.60
2023-05-13T08:16:27.174Z,32.56
2023-05-13T08:18:55.149Z,34.88
2023-05-13T08:21:23.152Z,33.92
2023-05-13T08:23:52.083Z,35.03
2023-05-13T08:26:20.142Z,36.00
2023-05-13T08:28:48.509Z,36.62
2023-05-13T08:31:17.063Z,37.01
2023-05-13T08:33:48.626Z,35.71
2023-05-13T08:36:17.172Z,35.91
2023-05-13T08:38:45.090Z,35.42
2023-05-13T08:41:14.823Z,35.96
2023-05-13T08:43:44.285Z,36.25
2023-05-13T08:46:13.301Z,36.04
2023-05-13T08:48:42.804Z,36.86
2023-05-13T08:51:13.171Z,36.26
2023-05-13T08:53:41.349Z,34.84
2023-05-13T08:56:10.521Z,35.30
2023-05-13T08:58:38.488Z,37.65
2023-05-13T09:01:07.461Z,35.11
2023-05-13T09:03:37.021Z,36.10
2023-05-13T09:06:05.622Z,35.48
2023-05-13T09:08:35.422Z,35.40
2023-05-13T09:11:03.539Z,35.15
2023-05-13T09:13:31.440Z,34.56
2023-05-13T09:15:59.489Z,34.64
2023-05-13T09:18:32.416Z,34.20
2023-05-13T09:21:22.866Z,35.46
2023-05-13T09:23:56.798Z,34.35
2023-05-13T09:26:31.403Z,36.30
2023-05-13T09:29:21.744Z,33.95
2023-05-13T09:31:51.288Z,34.63
2023-05-13T09:34:30.211Z,34.59
2023-05-13T09:37:03.338Z,33.63
2023-05-13T09:39:34.593Z,31.98
2023-05-13T09:42:05.198Z,34.43
2023-05-13T09:44:34.289Z,33.99
2023-05-13T09:47:03.466Z,34.33
2023-05-13T09:49:32.935Z,36.20
2023-05-13T09:52:00.867Z,36.18
2023-05-13T09:54:37.421Z,32.16
2023-05-13T09:57:06.102Z,31.89
2023-05-13T09:59:34.406Z,31.21
2023-05-13T10:02:05.668Z,30.02
2023-05-13T10:04:34.548Z,32.33
2023-05-13T10:07:05.239Z,32.84
2023-05-13T10:09:38.649Z,31.75
2023-05-13T10:12:09.695Z,32.56
2023-05-13T10:14:38.430Z,35.10
2023-05-13T10:17:07.931Z,31.35
2023-05-13T10:19:36.383Z,31.59
2023-05-13T10:22:04.805Z,33.98
2023-05-13T10:24:33.742Z,31.34
2023-05-13T10:27:04.915Z,31.34
2023-05-13T10:29:33.429Z,32.37
2023-05-13T10:32:02.128Z,32.37
2023-05-13T10:34:31.460Z,36.30
2023-05-13T10:37:15.197Z,31.50
2023-05-13T10:40:24.712Z,32.72
2023-05-13T10:43:02.595Z,33.70
2023-05-13T10:45:34.477Z,33.03
2023-05-13T10:48:07.972Z,33.12
2023-05-13T10:50:39.224Z,32.34
2023-05-13T10:53:18.973Z,32.07
2023-05-13T10:55:47.031Z,33.53
2023-05-13T10:58:16.839Z,32.33
2023-05-13T11:00:46.848Z,32.99
2023-05-13T11:03:30.130Z,31.85
2023-05-13T11:06:17.127Z,34.37
2023-05-13T11:08:46.610Z,32.94
2023-05-13T11:11:30.686Z,32.85
2023-05-13T11:14:08.582Z,34.49
2023-05-13T11:16:37.685Z,31.54
2023-05-13T11:19:10.839Z,32.33
2023-05-13T11:21:41.361Z,35.05
2023-05-13T11:24:09.535Z,33.41
2023-05-13T11:26:47.786Z,32.04
2023-05-13T11:29:28.017Z,32.28
2023-05-13T11:32:00.074Z,33.09
2023-05-13T11:34:29.065Z,33.50
2023-05-13T11:37:07.884Z,35.51
2023-05-13T11:39:36.348Z,32.86
2023-05-13T11:42:08.499Z,31.13
2023-05-13T11:44:39.560Z,31.91
2023-05-13T11:47:08.336Z,34.37
2023-05-13T11:49:38.890Z,31.30
2023-05-13T11:52:08.819Z,32.81
2023-05-13T11:54:44.999Z,34.44
2023-05-13T11:57:22.927Z,34.06
2023-05-13T11:59:57.726Z,33.18
2023-05-13T12:02:28.231Z,34.11
2023-05-13T12:04:56.695Z,32.73
2023-05-13T12:07:25.605Z,32.28
2023-05-13T12:09:56.628Z,31.43
2023-05-13T12:12:25.050Z,33.03
2023-05-13T12:14:53.318Z,33.67
2023-05-13T12:17:23.464Z,33.26
2023-05-13T12:20:11.845Z,32.81
2023-05-13T12:22:52.516Z,36.61
2023-05-13T12:25:34.613Z,35.70
2023-05-13T12:28:08.299Z,35.13
2023-05-13T12:30:36.168Z,35.68
2023-05-13T12:33:06.284Z,37.48
2023-05-13T12:35:34.827Z,35.76
2023-05-13T12:38:04.551Z,35.32
2023-05-13T12:40:33.467Z,35.72
2023-05-13T12:43:02.576Z,35.79
2023-05-13T12:45:31.513Z,37.03
2023-05-13T12:48:01.480Z,35.84
2023-05-13T12:50:30.840Z,35.91
2023-05-13T12:52:59.965Z,37.34
2023-05-13T12:55:28.382Z,36.38
2023-05-13T12:57:57.507Z,37.07
2023-05-13T13:00:25.786Z,38.11
2023-05-13T13:02:54.335Z,37.09
2023-05-13T13:05:23.043Z,37.84
2023-05-13T13:07:52.855Z,36.54
2023-05-13T13:10:20.905Z,35.84
2023-05-13T13:12:49.632Z,35.85
2023-05-13T13:15:17.767Z,37.16
2023-05-13T13:17:45.766Z,37.57
2023-05-13T13:20:13.918Z,36.01
2023-05-13T13:22:42.287Z,36.85
2023-05-13T13:25:11.893Z,35.88
2023-05-13T13:27:39.889Z,36.74
2023-05-13T13:30:09.109Z,37.02
2023-05-13T13:32:37.425Z,36.20
2023-05-13T13:35:05.788Z,35.77
2023-05-13T13:37:34.666Z,36.50
2023-05-13T13:40:04.002Z,36.37
2023-05-13T13:42:43.137Z,36.09
2023-05-13T13:45:13.677Z,35.50
2023-05-13T13:47:41.719Z,36.47
2023-05-13T13:50:11.228Z,37.08
2023-05-13T13:52:39.165Z,35.57
2023-05-13T13:55:08.447Z,35.29
2023-05-13T13:57:37.740Z,35.30
2023-05-13T14:00:06.996Z,35.48
2023-05-13T14:02:35.080Z,36.57
2023-05-13T14:05:03.095Z,35.87
2023-05-13T14:07:31.122Z,35.91
2023-05-13T14:10:01.058Z,36.84
2023-05-13T14:12:29.553Z,35.65
2023-05-13T14:14:59.663Z,36.33
2023-05-13T14:17:27.826Z,37.58
2023-05-13T14:19:55.987Z,36.96
2023-05-13T14:22:24.232Z,36.98
2023-05-13T14:24:53.416Z,37.73
2023-05-13T14:27:24.788Z,36.77
2023-05-13T14:29:52.931Z,37.25
2023-05-13T14:32:22.262Z,35.94
2023-05-13T14:34:50.193Z,37.24
2023-05-13T14:37:18.116Z,37.75
2023-05-13T14:39:48.367Z,37.61
2023-05-13T14:42:17.865Z,37.29
2023-05-13T14:44:46.256Z,37.05
2023-05-13T14:47:14.185Z,37.72
2023-05-13T14:49:43.473Z,37.78
2023-05-13T14:52:11.374Z,36.77
2023-05-13T14:54:39.356Z,37.60
2023-05-13T14:57:07.737Z,37.57
2023-05-13T14:59:35.952Z,37.88
2023-05-13T15:02:04.295Z,37.11
2023-05-13T15:04:32.361Z,37.57
2023-05-13T15:07:03.674Z,38.47
2023-05-13T15:09:31.682Z,39.25
2023-05-13T15:11:59.766Z,38.42
2023-05-13T15:14:28.380Z,37.63
2023-05-13T15:16:56.500Z,38.40
2023-05-13T15:19:24.504Z,38.72
2023-05-13T15:21:52.621Z,38.82
2023-05-13T15:24:22.022Z,39.85
2023-05-13T15:26:50.539Z,37.91
2023-05-13T15:29:18.505Z,37.55
2023-05-13T15:31:46.448Z,38.33
2023-05-13T15:34:14.379Z,39.27
2023-05-13T15:36:42.340Z,39.84
2023-05-13T15:39:11.242Z,38.70
2023-05-13T15:41:40.581Z,38.74
2023-05-13T15:44:08.487Z,39.47
2023-05-13T15:46:36.764Z,39.62
2023-05-13T15:49:04.779Z,39.44
2023-05-13T15:51:33.262Z,39.47
2023-05-13T15:54:01.232Z,38.52
2023-05-13T15:56:29.397Z,39.33
2023-05-13T15:58:58.710Z,40.08
2023-05-13T16:01:26.714Z,40.11
2023-05-13T16:03:54.837Z,40.45
2023-05-13T16:06:23.250Z,39.94
2023-05-13T16:08:51.203Z,40.60
2023-05-13T16:11:19.115Z,40.10
2023-05-13T16:13:47.007Z,39.94
2023-05-13T16:16:16.704Z,39.73
2023-05-13T16:18:44.625Z,39.69
2023-05-13T16:21:12.589Z,40.21
2023-05-13T16:23:40.530Z,39.79
2023-05-13T16:26:08.542Z,40.31
2023-05-13T16:28:36.579Z,41.06
2023-05-13T16:31:04.571Z,40.49
2023-05-13T16:33:33.901Z,41.51
2023-05-13T16:36:01.802Z,40.70
2023-05-13T16:38:30.490Z,40.84
2023-05-13T16:40:58.486Z,40.97
2023-05-13T16:43:26.419Z,41.17
2023-05-13T16:45:54.441Z,40.36
2023-05-13T16:48:22.501Z,41.04
2023-05-13T16:50:52.314Z,41.82
2023-05-13T16:53:22.224Z,42.38
2023-05-13T16:55:50.672Z,43.00
2023-05-13T16:58:18.687Z,43.01
2023-05-13T17:00:46.648Z,44.00
2023-05-13T17:03:14.778Z,44.21
2023-05-13T17:05:42.919Z,44.28
2023-05-13T17:08:12.332Z,44.57
2023-05-13T17:10:40.464Z,44.08
2023-05-13T17:13:08.374Z,44.26
2023-05-13T17:15:36.292Z,44.76
2023-05-13T17:18:04.351Z,45.13
2023-05-13T17:20:32.291Z,45.68
2023-05-13T17:23:00.384Z,46.21
2023-05-13T17:25:29.808Z,46.58
2023-05-13T17:27:57.722Z,45.89
2023-05-13T17:30:25.666Z,46.54
2023-05-13T17:32:53.749Z,46.70
2023-05-13T17:35:21.732Z,48.33
2023-05-13T17:37:49.615Z,48.53
2023-05-13T17:40:17.551Z,48.56
2023-05-13T17:42:46.828Z,49.74
2023-05-13T17:45:14.821Z,49.67
2023-05-13T17:47:42.894Z,49.38
2023-05-13T17:50:14.418Z,50.75
2023-05-13T17:52:42.610Z,50.24
2023-05-13T17:55:11.018Z,50.16
2023-05-13T17:57:38.948Z,51.87
2023-05-13T18:00:09.548Z,51.88
2023-05-13T18:02:37.541Z,52.32
2023-05-13T18:05:06.372Z,52.19
2023-05-13T18:07:34.258Z,51.62
2023-05-13T18:10:02.184Z,51.88
2023-05-13T18:12:30.364Z,52.44
2023-05-13T18:14:58.312Z,52.91
2023-05-13T18:17:27.671Z,52.26
2023-05-13T18:19:55.736Z,54.13
2023-05-13T18:22:23.738Z,54.50
2023-05-13T18:24:51.629Z,54.91
2023-05-13T18:27:19.537Z,55.90
2023-05-13T18:29:47.781Z,57.15
2023-05-13T18:32:15.737Z,55.51
2023-05-13T18:34:45.058Z,58.45
2023-05-13T18:37:13.000Z,57.12
2023-05-13T18:39:40.921Z,58.42
2023-05-13T18:42:09.308Z,59.64
2023-05-13T18:44:37.219Z,60.45
2023-05-13T18:47:05.652Z,61.63
2023-05-13T18:49:33.821Z,61.01
2023-05-13T18:52:03.148Z,62.85
2023-05-13T18:54:31.239Z,63.79
2023-05-13T18:56:59.238Z,64.12
2023-05-13T18:59:27.207Z,64.48
2023-05-13T19:01:55.297Z,63.73
2023-05-13T19:04:23.491Z,63.70
2023-05-13T19:06:51.604Z,61.98
2023-05-13T19:09:21.651Z,62.50
2023-05-13T19:11:49.544Z,64.90
2023-05-13T19:14:17.469Z,63.08
2023-05-13T19:16:46.939Z,60.76
2023-05-13T19:19:15.020Z,60.81
2023-05-13T19:21:43.088Z,60.42
2023-05-13T19:24:11.021Z,62.95
2023-05-13T19:26:40.552Z,64.73
2023-05-13T19:29:08.455Z,64.38
2023-05-13T19:31:36.461Z,62.64
2023-05-13T19:34:04.498Z,64.42
2023-05-13T19:36:32.745Z,65.38
2023-05-13T19:39:00.739Z,65.00
2023-05-13T19:41:28.643Z,63.34
2023-05-13T19:43:57.950Z,62.73
2023-05-13T19:46:25.988Z,63.47
2023-05-13T19:48:53.890Z,63.92
2023-05-13T19:51:21.811Z,63.43
2023-05-13T19:53:49.739Z,64.22
2023-05-13T19:56:17.655Z,63.67
2023-05-13T19:58:45.568Z,64.82
2023-05-13T20:01:15.066Z,65.88
2023-05-13T20:03:43.047Z,67.91
2023-05-13T20:06:11.105Z,66.78
2023-05-13T20:08:39.759Z,66.28
2023-05-13T20:11:07.710Z,65.89
2023-05-13T20:13:35.783Z,67.15
2023-05-13T20:16:03.909Z,69.18
2023-05-13T20:18:33.271Z,68.67
2023-05-13T20:21:01.204Z,70.70
2023-05-13T20:23:29.122Z,70.74
2023-05-13T20:25:58.297Z,71.60
2023-05-13T20:28:26.385Z,71.35
2023-05-13T20:30:55.681Z,72.08
2023-05-13T20:33:23.625Z,72.65
2023-05-13T20:35:52.938Z,72.88
2023-05-13T20:38:22.284Z,73.46
2023-05-13T20:40:50.274Z,74.22
2023-05-13T20:43:18.840Z,74.55
2023-05-13T20:45:46.818Z,75.08
2023-05-13T20:48:14.770Z,75.69
2023-05-13T20:50:42.710Z,76.32
2023-05-13T20:53:12.053Z,77.28
2023-05-13T20:55:39.945Z,79.09
2023-05-13T20:58:07.894Z,78.48
2023-05-13T21:00:35.811Z,79.93
2023-05-13T21:03:03.826Z,80.12
2023-05-13T21:05:31.990Z,79.00
2023-05-13T21:07:59.836Z,80.25
2023-05-13T21:10:29.118Z,80.78
2023-05-13T21:12:57.070Z,82.55
2023-05-13T21:15:25.014Z,82.59
2023-05-13T21:17:52.929Z,82.19
2023-05-13T21:20:21.220Z,81.52
2023-05-13T21:22:49.298Z,82.66
2023-05-13T21:25:17.304Z,82.61
2023-05-13T21:27:46.580Z,82.72
2023-05-13T21:30:15.099Z,83.01
2023-05-13T21:32:43.050Z,82.85
2023-05-13T21:35:11.006Z,84.26
2023-05-13T21:37:38.918Z,84.17
2023-05-13T21:40:08.642Z,84.95
2023-05-13T21:42:36.607Z,84.40
2023-05-13T21:45:06.739Z,84.39
2023-05-13T21:47:34.756Z,85.13
2023-05-13T21:50:02.750Z,84.97
2023-05-13T21:52:30.706Z,85.72
2023-05-13T21:54:58.669Z,85.77
2023-05-13T21:57:26.615Z,86.33
2023-05-13T21:59:54.516Z,86.25
2023-05-13T22:02:23.916Z,87.43
2023-05-13T22:04:51.894Z,87.39
2023-05-13T22:07:19.798Z,87.71
2023-05-13T22:09:49.108Z,87.42
2023-05-13T22:12:18.334Z,86.99
2023-05-13T22:14:46.274Z,87.64
2023-05-13T22:17:14.226Z,87.66
2023-05-13T22:19:43.650Z,87.88
2023-05-13T22:22:11.614Z,88.29
2023-05-13T22:24:39.533Z,88.06
2023-05-13T22:27:07.494Z,88.76
2023-05-13T22:29:35.448Z,88.40
2023-05-13T22:32:03.693Z,88.60
2023-05-13T22:34:31.646Z,89.15
2023-05-13T22:37:02.098Z,90.65
2023-05-13T22:39:29.980Z,91.63
2023-05-13T22:41:57.935Z,91.50
2023-05-13T22:44:25.867Z,90.57
2023-05-13T22:46:54.274Z,90.58
2023-05-13T22:49:22.295Z,90.07
2023-05-13T22:51:50.231Z,90.04
2023-05-13T22:54:19.596Z,90.80
2023-05-13T22:56:47.511Z,91.41
2023-05-13T22:59:15.445Z,91.44
2023-05-13T23:01:43.480Z,91.75
2023-05-13T23:04:11.498Z,91.27
2023-05-13T23:06:39.492Z,91.10
2023-05-13T23:09:07.802Z,92.05
2023-05-13T23:11:38.035Z,91.34
2023-05-13T23:14:05.942Z,92.27
2023-05-13T23:16:33.906Z,92.62
2023-05-13T23:19:02.420Z,92.36
2023-05-13T23:21:30.534Z,92.14
2023-05-13T23:23:58.529Z,92.90
2023-05-13T23:26:26.454Z,92.33
2023-05-13T23:28:55.828Z,93.01
2023-05-13T23:31:23.826Z,93.45
2023-05-13T23:33:51.755Z,93.14
2023-05-13T23:36:19.657Z,94.02
2023-05-13T23:38:47.653Z,95.28
2023-05-13T23:41:15.566Z,96.65
2023-05-13T23:43:43.508Z,96.75
2023-05-13T23:46:12.853Z,97.04
2023-05-13T23:48:40.810Z,97.39
2023-05-13T23:51:08.702Z,96.65
2023-05-13T23:53:36.805Z,97.07
2023-05-13T23:56:05.207Z,95.84
2023-05-13T23:58:33.119Z,96.27
